createdAt,value
2023-04-08T00:01:09.264Z,2.20
2023-04-08T00:03:36.992Z,1.45
2023-04-08T00:06:04.922Z,1.35
2023-04-08T00:08:32.822Z,1.55
2023-04-08T00:11:00.427Z,1.45
2023-04-08T00:13:27.954Z,1.20
2023-04-08T00:15:56.766Z,1.13
2023-04-08T00:18:24.266Z,1.40
2023-04-08T00:20:51.811Z,1.30
2023-04-08T00:23:21.279Z,1.15
2023-04-08T00:25:48.760Z,1.40
2023-04-08T00:28:16.498Z,1.15
2023-04-08T00:30:44.082Z,1.33
2023-04-08T00:33:13.015Z,1.85
2023-04-08T00:35:40.562Z,1.35
2023-04-08T00:38:08.700Z,1.20
2023-04-08T00:40:36.307Z,1.13
2023-04-08T00:43:03.837Z,1.20
2023-04-08T00:45:31.385Z,1.00
2023-04-08T00:47:58.941Z,1.10
2023-04-08T00:50:27.840Z,1.35
2023-04-08T00:52:55.360Z,1.33
2023-04-08T00:55:22.985Z,1.20
2023-04-08T00:57:50.553Z,1.33
2023-04-08T01:00:18.158Z,1.30
2023-04-08T01:02:49.084Z,1.00
2023-04-08T01:05:22.032Z,1.02
2023-04-08T01:07:51.586Z,1.45
2023-04-08T01:10:21.431Z,1.30
2023-04-08T01:13:00.685Z,1.00
2023-04-08T01:15:30.070Z,1.30
2023-04-08T01:18:00.527Z,1.30
2023-04-08T01:20:28.894Z,1.30
2023-04-08T01:23:06.845Z,1.42
2023-04-08T01:25:36.732Z,1.20
2023-04-08T01:28:08.101Z,1.33
2023-04-08T01:30:36.816Z,1.30
2023-04-08T01:33:05.085Z,1.35
2023-04-08T01:35:33.102Z,1.40
2023-04-08T01:38:01.495Z,1.30
2023-04-08T01:40:29.106Z,1.70
2023-04-08T01:42:57.973Z,1.48
2023-04-08T01:45:27.748Z,1.45
2023-04-08T01:47:56.413Z,1.20
2023-04-08T01:50:24.981Z,1.50
2023-04-08T01:52:53.773Z,1.48
2023-04-08T01:55:21.886Z,1.92
2023-04-08T01:57:51.526Z,1.35
2023-04-08T02:00:21.003Z,1.70
2023-04-08T02:02:50.846Z,1.50
2023-04-08T02:05:20.113Z,1.60
2023-04-08T02:07:48.388Z,1.48
2023-04-08T02:10:16.111Z,1.70
2023-04-08T02:12:44.628Z,1.60
2023-04-08T02:15:12.702Z,1.65
2023-04-08T02:17:45.477Z,1.75
2023-04-08T02:20:17.768Z,1.70
2023-04-08T02:22:56.349Z,1.63
2023-04-08T02:27:53.356Z,1.73
2023-04-08T02:30:21.487Z,1.40
2023-04-08T02:32:49.735Z,1.58
2023-04-08T02:35:19.602Z,1.50
2023-04-08T02:37:48.636Z,1.10
2023-04-08T02:40:26.947Z,1.40
2023-04-08T02:42:54.640Z,1.13
2023-04-08T02:45:22.486Z,1.10
2023-04-08T02:47:51.000Z,1.23
2023-04-08T02:50:19.836Z,1.13
2023-04-08T02:52:47.368Z,1.00
2023-04-08T02:55:14.966Z,0.90
2023-04-08T02:57:43.376Z,1.08
2023-04-08T03:00:11.947Z,0.90
2023-04-08T03:02:39.595Z,0.90
2023-04-08T03:05:08.051Z,1.10
2023-04-08T03:07:36.904Z,0.80
2023-04-08T03:10:04.805Z,0.80
2023-04-08T03:12:33.000Z,0.82
2023-04-08T03:15:01.059Z,0.90
2023-04-08T03:17:28.740Z,1.15
2023-04-08T03:19:56.257Z,0.85
2023-04-08T03:22:24.375Z,1.02
2023-04-08T03:24:53.234Z,0.80
2023-04-08T03:27:20.711Z,0.80
2023-04-08T03:29:48.419Z,0.98
2023-04-08T03:32:16.106Z,0.93
2023-04-08T03:34:43.667Z,1.05
2023-04-08T03:37:11.327Z,1.10
2023-04-08T03:39:39.251Z,0.90
2023-04-08T03:42:08.073Z,0.70
2023-04-08T03:44:35.557Z,0.80
2023-04-08T03:47:03.061Z,0.70
2023-04-08T03:49:30.550Z,0.70
2023-04-08T03:51:58.019Z,0.80
2023-04-08T03:54:25.618Z,0.90
2023-04-08T03:56:53.093Z,0.70
2023-04-08T03:59:21.952Z,0.82
2023-04-08T04:01:51.278Z,0.90
2023-04-08T04:04:19.060Z,1.00
2023-04-08T04:06:46.815Z,0.90
2023-04-08T04:09:15.192Z,0.68
2023-04-08T04:11:42.667Z,0.80
2023-04-08T04:14:10.179Z,0.80
2023-04-08T04:16:39.031Z,0.80
2023-04-08T04:19:06.642Z,0.80
2023-04-08T04:21:34.140Z,0.70
2023-04-08T04:24:01.665Z,0.75
2023-04-08T04:26:29.171Z,0.80
2023-04-08T04:28:56.717Z,0.80
2023-04-08T04:31:26.430Z,0.70
2023-04-08T04:33:55.403Z,0.80
2023-04-08T04:36:22.932Z,0.93
2023-04-08T04:38:50.813Z,0.90
2023-04-08T04:41:18.542Z,0.70
2023-04-08T04:43:46.216Z,0.90
2023-04-08T04:46:13.728Z,0.65
2023-04-08T04:48:41.553Z,0.98
2023-04-08T04:51:10.464Z,1.13
2023-04-08T04:53:37.918Z,0.93
2023-04-08T04:56:05.528Z,0.70
2023-04-08T04:58:33.045Z,0.70
2023-04-08T05:01:00.500Z,0.80
2023-04-08T05:03:28.046Z,0.60
2023-04-08T05:05:55.890Z,0.93
2023-04-08T05:08:27.256Z,1.00
2023-04-08T05:10:56.100Z,0.73
2023-04-08T05:13:23.673Z,0.63
2023-04-08T05:15:51.277Z,0.90
2023-04-08T05:18:18.827Z,0.73
2023-04-08T05:20:46.806Z,0.80
2023-04-08T05:23:14.272Z,0.60
2023-04-08T05:25:43.091Z,0.65
2023-04-08T05:28:10.612Z,0.70
2023-04-08T05:30:38.166Z,0.63
2023-04-08T05:33:05.682Z,0.70
2023-04-08T05:35:33.355Z,0.50
2023-04-08T05:38:00.853Z,0.50
2023-04-08T05:40:28.337Z,0.60
2023-04-08T05:42:57.145Z,0.70
2023-04-08T05:45:24.662Z,0.52
2023-04-08T05:47:52.147Z,0.50
2023-04-08T05:50:19.692Z,0.60
2023-04-08T05:52:47.382Z,0.60
2023-04-08T05:55:15.554Z,0.57
2023-04-08T05:57:43.034Z,0.50
2023-04-08T06:00:12.508Z,1.05
2023-04-08T06:02:40.120Z,0.60
2023-04-08T06:05:08.213Z,0.85
2023-04-08T06:07:35.858Z,0.40
2023-04-08T06:10:03.511Z,0.43
2023-04-08T06:12:31.189Z,0.57
2023-04-08T06:14:58.756Z,0.50
2023-04-08T06:17:27.634Z,0.43
2023-04-08T06:19:55.215Z,0.50
2023-04-08T06:22:22.722Z,0.50
2023-04-08T06:24:50.218Z,0.57
2023-04-08T06:27:18.264Z,0.30
2023-04-08T06:29:45.749Z,0.50
2023-04-08T06:32:13.252Z,0.50
2023-04-08T06:34:42.220Z,0.40
2023-04-08T06:37:09.826Z,0.50
2023-04-08T06:39:37.295Z,1.20
2023-04-08T06:42:04.834Z,0.60
2023-04-08T06:44:45.177Z,0.50
2023-04-08T06:47:12.650Z,0.52
2023-04-08T06:49:40.109Z,0.57
2023-04-08T06:52:08.901Z,0.70
2023-04-08T06:54:36.417Z,0.60
2023-04-08T06:57:04.186Z,1.00
2023-04-08T06:59:31.725Z,0.38
2023-04-08T07:01:59.316Z,0.50
2023-04-08T07:04:27.004Z,0.68
2023-04-08T07:06:54.839Z,0.60
2023-04-08T07:09:23.677Z,0.50
2023-04-08T07:11:51.287Z,0.45
2023-04-08T07:14:19.597Z,0.40
2023-04-08T07:16:47.171Z,0.20
2023-04-08T07:19:14.695Z,0.50
2023-04-08T07:21:42.390Z,0.47
2023-04-08T07:24:09.892Z,0.52
2023-04-08T07:26:39.289Z,0.40
2023-04-08T07:29:06.783Z,0.43
2023-04-08T07:31:34.370Z,0.60
2023-04-08T07:34:01.906Z,0.32
2023-04-08T07:36:29.423Z,0.40
2023-04-08T07:38:56.909Z,0.52
2023-04-08T07:41:24.413Z,0.57
2023-04-08T07:43:53.204Z,0.40
2023-04-08T07:46:21.160Z,0.40
2023-04-08T07:48:49.053Z,0.60
2023-04-08T07:51:16.713Z,0.88
2023-04-08T07:53:47.928Z,0.80
2023-04-08T07:56:18.202Z,0.40
2023-04-08T07:58:45.921Z,0.57
2023-04-08T08:01:20.097Z,0.43
2023-04-08T08:03:48.511Z,0.50
2023-04-08T08:06:16.432Z,0.38
2023-04-08T08:08:44.107Z,0.43
2023-04-08T08:11:11.763Z,0.40
2023-04-08T08:13:39.264Z,0.40
2023-04-08T08:16:09.191Z,0.35
2023-04-08T08:18:40.148Z,0.50
2023-04-08T08:21:08.548Z,0.40
2023-04-08T08:23:36.191Z,0.60
2023-04-08T08:26:04.944Z,0.60
2023-04-08T08:28:32.454Z,0.40
2023-04-08T08:31:00.359Z,0.55
2023-04-08T08:33:27.869Z,0.50
2023-04-08T08:35:58.144Z,0.50
2023-04-08T08:38:26.094Z,0.80
2023-04-08T08:40:56.367Z,0.50
2023-04-08T08:43:24.054Z,0.30
2023-04-08T08:45:51.605Z,0.30
2023-04-08T08:48:19.131Z,0.50
2023-04-08T08:50:46.720Z,0.50
2023-04-08T08:53:16.151Z,0.70
2023-04-08T08:56:13.660Z,0.50
2023-04-08T08:58:31.657Z,0.57
2023-04-08T09:01:00.974Z,0.50
2023-04-08T09:03:29.697Z,0.57
2023-04-08T09:05:58.846Z,0.40
2023-04-08T09:08:31.888Z,0.40
2023-04-08T09:11:12.459Z,0.55
2023-04-08T09:13:40.311Z,0.43
2023-04-08T09:16:09.574Z,0.50
2023-04-08T09:18:37.833Z,0.60
2023-04-08T09:21:06.428Z,0.60
2023-04-08T09:23:43.020Z,0.50
2023-04-08T09:26:11.887Z,0.60
2023-04-08T09:28:40.695Z,0.65
2023-04-08T09:31:21.827Z,0.50
2023-04-08T09:33:50.390Z,0.43
2023-04-08T09:36:18.378Z,0.73
2023-04-08T09:38:49.219Z,0.60
2023-04-08T09:41:17.891Z,0.55
2023-04-08T09:43:49.589Z,1.85
2023-04-08T09:46:19.257Z,0.93
2023-04-08T09:48:52.300Z,0.82
2023-04-08T09:51:22.508Z,0.50
2023-04-08T09:53:57.340Z,0.65
2023-04-08T09:56:25.892Z,0.80
2023-04-08T09:58:56.881Z,0.50
2023-04-08T10:01:29.836Z,0.60
2023-04-08T10:03:58.257Z,0.63
2023-04-08T10:06:29.507Z,0.60
2023-04-08T10:08:59.100Z,0.90
2023-04-08T10:11:26.600Z,0.60
2023-04-08T10:13:54.193Z,3.63
2023-04-08T10:16:24.412Z,3.85
2023-04-08T10:18:55.619Z,0.90
2023-04-08T10:21:33.135Z,0.73
2023-04-08T10:24:06.965Z,0.60
2023-04-08T10:26:36.710Z,0.68
2023-04-08T10:29:32.638Z,0.75
2023-04-08T10:32:01.260Z,1.00
2023-04-08T10:34:28.982Z,0.70
2023-04-08T10:36:58.969Z,0.75
2023-04-08T10:39:28.362Z,0.70
2023-04-08T10:41:56.338Z,0.77
2023-04-08T10:44:26.252Z,0.80
2023-04-08T10:46:54.703Z,0.50
2023-04-08T10:49:22.937Z,0.70
2023-04-08T10:51:50.516Z,0.70
2023-04-08T10:54:19.269Z,0.70
2023-04-08T10:56:49.509Z,0.68
2023-04-08T10:59:20.068Z,0.90
2023-04-08T11:01:48.076Z,0.63
2023-04-08T11:04:17.991Z,0.80
2023-04-08T11:06:46.875Z,0.98
2023-04-08T11:09:15.324Z,3.65
2023-04-08T11:11:43.414Z,2.30
2023-04-08T11:14:12.500Z,1.23
2023-04-08T11:16:40.697Z,1.52
2023-04-08T11:19:08.937Z,1.33
2023-04-08T11:21:37.626Z,1.33
2023-04-08T11:24:11.900Z,1.50
2023-04-08T11:26:39.662Z,1.50
2023-04-08T11:29:08.903Z,1.50
2023-04-08T11:31:38.181Z,1.70
2023-04-08T11:34:06.261Z,1.83
2023-04-08T11:36:35.284Z,1.65
2023-04-08T11:39:08.001Z,1.77
2023-04-08T11:41:40.535Z,1.85
2023-04-08T11:44:08.752Z,1.80
2023-04-08T11:46:38.106Z,2.00
2023-04-08T11:49:07.696Z,1.98
2023-04-08T11:51:36.207Z,2.25
2023-04-08T11:54:06.168Z,1.98
2023-04-08T11:56:45.633Z,2.10
2023-04-08T11:59:13.126Z,1.85
2023-04-08T12:01:41.990Z,2.00
2023-04-08T12:04:10.680Z,2.13
2023-04-08T12:06:38.375Z,2.45
2023-04-08T12:09:06.404Z,2.30
2023-04-08T12:11:34.787Z,2.00
2023-04-08T12:14:02.286Z,2.42
2023-04-08T12:16:30.054Z,2.20
2023-04-08T12:18:58.905Z,2.50
2023-04-08T12:21:27.850Z,2.33
2023-04-08T12:23:55.347Z,2.17
2023-04-08T12:26:22.853Z,2.17
2023-04-08T12:28:50.422Z,1.90
2023-04-08T12:31:17.931Z,2.30
2023-04-08T12:33:45.481Z,2.35
2023-04-08T12:36:14.291Z,2.22
2023-04-08T12:38:42.016Z,2.05
2023-04-08T12:41:09.583Z,2.50
2023-04-08T12:43:37.661Z,2.28
2023-04-08T12:46:05.210Z,2.35
2023-04-08T12:48:33.172Z,2.08
2023-04-08T12:51:00.836Z,2.30
2023-04-08T12:53:29.672Z,2.85
2023-04-08T12:55:57.587Z,2.35
2023-04-08T12:58:25.634Z,2.53
2023-04-08T13:00:53.331Z,2.55
2023-04-08T13:03:20.887Z,2.85
2023-04-08T13:05:48.551Z,2.28
2023-04-08T13:08:16.722Z,2.20
2023-04-08T13:10:45.607Z,2.20
2023-04-08T13:13:14.224Z,2.22
2023-04-08T13:15:41.976Z,2.08
2023-04-08T13:18:09.515Z,2.30
2023-04-08T13:20:37.097Z,2.25
2023-04-08T13:23:04.702Z,2.30
2023-04-08T13:25:32.229Z,2.55
2023-04-08T13:28:01.133Z,2.22
2023-04-08T13:30:28.631Z,2.20
2023-04-08T13:32:56.177Z,2.13
2023-04-08T13:35:23.800Z,2.10
2023-04-08T13:37:51.314Z,2.10
2023-04-08T13:40:18.800Z,1.95
2023-04-08T13:42:46.664Z,1.90
2023-04-08T13:45:15.654Z,2.15
2023-04-08T13:47:43.250Z,1.70
2023-04-08T13:50:11.216Z,1.77
2023-04-08T13:52:38.701Z,1.95
2023-04-08T13:55:07.258Z,1.92
2023-04-08T13:57:34.824Z,1.83
2023-04-08T14:00:02.330Z,1.83
2023-04-08T14:02:32.033Z,1.85
2023-04-08T14:04:59.583Z,1.60
2023-04-08T14:07:27.114Z,1.73
2023-04-08T14:09:54.905Z,1.67
2023-04-08T14:12:22.478Z,1.95
2023-04-08T14:14:49.973Z,1.88
2023-04-08T14:17:17.555Z,1.30
2023-04-08T14:19:46.408Z,1.20
2023-04-08T14:22:14.971Z,1.20
2023-04-08T14:24:42.536Z,0.98
2023-04-08T14:27:10.265Z,1.00
2023-04-08T14:29:37.823Z,0.93
2023-04-08T14:32:05.657Z,1.10
2023-04-08T14:34:33.191Z,1.77
2023-04-08T14:37:02.022Z,0.90
2023-04-08T14:39:29.535Z,1.10
2023-04-08T14:41:57.371Z,0.90
2023-04-08T14:44:24.911Z,0.85
2023-04-08T14:46:52.570Z,0.93
2023-04-08T14:49:23.316Z,0.82
2023-04-08T14:51:52.741Z,1.00
2023-04-08T14:54:22.254Z,1.02
2023-04-08T14:56:49.750Z,0.95
2023-04-08T14:59:17.279Z,1.00
2023-04-08T15:01:45.068Z,1.20
2023-04-08T15:04:12.710Z,0.90
2023-04-08T15:06:40.463Z,1.10
2023-04-08T15:09:08.060Z,1.00
2023-04-08T15:11:37.065Z,1.08
2023-04-08T15:14:04.580Z,1.00
2023-04-08T15:16:33.004Z,0.90
2023-04-08T15:19:00.694Z,0.90
2023-04-08T15:21:28.219Z,0.90
2023-04-08T15:23:55.751Z,0.90
2023-04-08T15:26:24.406Z,0.98
2023-04-08T15:28:55.163Z,1.00
2023-04-08T15:31:22.776Z,1.30
2023-04-08T15:33:50.566Z,1.10
2023-04-08T15:36:19.827Z,1.10
2023-04-08T15:38:47.911Z,1.23
2023-04-08T15:41:19.190Z,1.20
2023-04-08T15:43:47.032Z,1.35
2023-04-08T15:46:19.607Z,1.30
2023-04-08T15:48:47.359Z,1.98
2023-04-08T15:51:14.879Z,1.25
2023-04-08T15:53:42.666Z,1.30
2023-04-08T15:56:13.475Z,1.58
2023-04-08T15:58:41.099Z,1.45
2023-04-08T16:01:08.926Z,1.40
2023-04-08T16:03:38.032Z,1.25
2023-04-08T16:06:08.655Z,1.15
2023-04-08T16:08:37.298Z,1.40
2023-04-08T16:11:06.222Z,1.35
2023-04-08T16:13:34.153Z,1.30
2023-04-08T16:16:02.660Z,1.33
2023-04-08T16:18:30.420Z,1.33
2023-04-08T16:20:59.276Z,1.27
2023-04-08T16:23:27.086Z,1.30
2023-04-08T16:25:54.578Z,1.48
2023-04-08T16:28:22.072Z,1.70
2023-04-08T16:30:49.580Z,1.52
2023-04-08T16:33:17.123Z,1.65
2023-04-08T16:35:44.788Z,1.70
2023-04-08T16:38:14.847Z,1.70
2023-04-08T16:40:42.524Z,1.60
2023-04-08T16:43:10.088Z,1.55
2023-04-08T16:45:37.879Z,1.92
2023-04-08T16:48:05.478Z,1.75
2023-04-08T16:50:33.018Z,1.65
2023-04-08T16:53:00.606Z,1.60
2023-04-08T16:55:29.437Z,1.50
2023-04-08T16:57:57.804Z,1.60
2023-04-08T17:00:25.356Z,1.45
2023-04-08T17:02:55.507Z,1.55
2023-04-08T17:05:23.248Z,1.77
2023-04-08T17:07:50.792Z,2.10
2023-04-08T17:10:18.887Z,2.00
2023-04-08T17:12:47.676Z,2.00
2023-04-08T17:15:15.387Z,1.95
2023-04-08T17:17:42.981Z,2.25
2023-04-08T17:20:11.886Z,2.20
2023-04-08T17:22:39.401Z,1.95
2023-04-08T17:25:07.875Z,2.17
2023-04-08T17:27:35.383Z,2.05
2023-04-08T17:30:04.824Z,2.10
2023-04-08T17:32:32.320Z,2.53
2023-04-08T17:34:59.893Z,2.40
2023-04-08T17:37:27.499Z,2.00
2023-04-08T17:39:55.015Z,2.25
2023-04-08T17:42:23.652Z,2.28
2023-04-08T17:44:51.139Z,2.20
2023-04-08T17:47:21.059Z,2.15
2023-04-08T17:49:48.604Z,3.40
2023-04-08T17:52:16.280Z,2.13
2023-04-08T17:54:43.963Z,2.25
2023-04-08T17:57:11.472Z,2.10
2023-04-08T17:59:38.981Z,2.70
2023-04-08T18:02:06.555Z,2.67
2023-04-08T18:04:35.392Z,2.17
2023-04-08T18:07:04.420Z,2.40
2023-04-08T18:09:32.040Z,2.13
2023-04-08T18:11:59.556Z,2.30
2023-04-08T18:14:29.135Z,3.08
2023-04-08T18:16:56.765Z,2.30
2023-04-08T18:19:26.090Z,2.67
2023-04-08T18:21:55.291Z,2.78
2023-04-08T18:24:22.850Z,3.45
2023-04-08T18:27:01.461Z,3.67
2023-04-08T18:29:31.297Z,2.80
2023-04-08T18:32:03.201Z,2.50
2023-04-08T18:34:31.953Z,2.45
2023-04-08T18:37:01.049Z,2.60
2023-04-08T18:39:28.536Z,2.45
2023-04-08T18:41:56.597Z,2.65
2023-04-08T18:44:24.318Z,2.47
2023-04-08T18:46:51.821Z,2.20
2023-04-08T18:49:19.310Z,2.63
2023-04-08T18:51:55.520Z,2.30
2023-04-08T18:54:31.501Z,2.17
2023-04-08T18:56:59.128Z,2.10
2023-04-08T18:59:28.317Z,2.28
2023-04-08T19:01:56.315Z,2.20
2023-04-08T19:04:23.893Z,2.20
2023-04-08T19:06:51.434Z,2.33
2023-04-08T19:09:19.195Z,2.30
2023-04-08T19:11:48.566Z,2.38
2023-04-08T19:14:16.054Z,2.40
2023-04-08T19:16:43.696Z,2.20
2023-04-08T19:19:11.158Z,2.10
2023-04-08T19:21:38.723Z,2.20
2023-04-08T19:24:06.619Z,2.40
2023-04-08T19:26:34.675Z,2.28
2023-04-08T19:29:03.621Z,2.22
2023-04-08T19:31:31.372Z,2.33
2023-04-08T19:33:59.008Z,2.22
2023-04-08T19:36:27.464Z,2.35
2023-04-08T19:38:54.928Z,2.20
2023-04-08T19:41:23.109Z,2.00
2023-04-08T19:43:50.761Z,2.00
2023-04-08T19:46:19.740Z,2.10
2023-04-08T19:48:47.396Z,2.10
2023-04-08T19:51:16.945Z,2.17
2023-04-08T19:53:44.598Z,2.40
2023-04-08T19:56:12.037Z,2.00
2023-04-08T19:58:39.521Z,2.47
2023-04-08T20:01:07.333Z,2.10
2023-04-08T20:03:36.399Z,2.50
2023-04-08T20:06:03.961Z,1.90
2023-04-08T20:08:31.438Z,2.50
2023-04-08T20:10:59.381Z,2.53
2023-04-08T20:13:26.855Z,2.25
2023-04-08T20:15:54.410Z,2.80
2023-04-08T20:18:22.040Z,2.60
2023-04-08T20:20:50.835Z,2.15
2023-04-08T20:23:18.366Z,2.08
2023-04-08T20:25:45.862Z,2.15
2023-04-08T20:28:13.359Z,1.98
2023-04-08T20:30:40.856Z,1.65
2023-04-08T20:33:08.373Z,2.10
2023-04-08T20:35:35.911Z,2.20
2023-04-08T20:38:05.190Z,1.80
2023-04-08T20:40:32.878Z,2.30
2023-04-08T20:43:00.569Z,1.83
2023-04-08T20:45:28.265Z,2.60
2023-04-08T20:47:55.893Z,1.85
2023-04-08T20:50:23.854Z,2.78
2023-04-08T20:52:51.641Z,1.75
2023-04-08T20:55:20.671Z,2.05
2023-04-08T20:57:48.361Z,1.90
2023-04-08T21:00:16.947Z,1.70
2023-04-08T21:02:44.883Z,1.73
2023-04-08T21:05:12.565Z,2.72
2023-04-08T21:07:44.238Z,1.70
2023-04-08T21:10:12.362Z,2.35
2023-04-08T21:12:41.207Z,2.05
2023-04-08T21:15:09.757Z,1.90
2023-04-08T21:17:37.343Z,1.63
2023-04-08T21:20:06.532Z,2.00
2023-04-08T21:22:34.073Z,2.22
2023-04-08T21:25:01.561Z,1.90
2023-04-08T21:27:29.277Z,1.85
2023-04-08T21:29:58.112Z,1.83
2023-04-08T21:32:26.491Z,1.80
2023-04-08T21:34:55.048Z,1.75
2023-04-08T21:37:23.066Z,1.60
2023-04-08T21:39:51.516Z,1.85
2023-04-08T21:42:22.527Z,1.92
2023-04-08T21:44:50.041Z,1.90
2023-04-08T21:47:18.978Z,2.25
2023-04-08T21:49:46.472Z,2.10
2023-04-08T21:52:13.973Z,1.73
2023-04-08T21:54:41.547Z,2.03
2023-04-08T21:57:09.000Z,1.90
2023-04-08T21:59:36.846Z,1.85
2023-04-08T22:02:04.636Z,1.80
2023-04-08T22:04:33.528Z,1.92
2023-04-08T22:07:01.548Z,1.92
2023-04-08T22:09:29.066Z,1.80
2023-04-08T22:11:57.197Z,1.65
2023-04-08T22:14:24.713Z,1.48
2023-04-08T22:16:52.288Z,1.90
2023-04-08T22:19:19.996Z,1.77
2023-04-08T22:21:50.164Z,1.73
2023-04-08T22:24:17.943Z,1.80
2023-04-08T22:26:45.422Z,1.83
2023-04-08T22:29:13.002Z,1.63
2023-04-08T22:31:40.705Z,1.70
2023-04-08T22:34:08.205Z,1.60
2023-04-08T22:36:35.748Z,1.73
2023-04-08T22:39:04.819Z,2.00
2023-04-08T22:41:32.296Z,1.60
2023-04-08T22:43:59.794Z,1.45
2023-04-08T22:46:27.281Z,1.77
2023-04-08T22:48:54.931Z,1.77
2023-04-08T22:51:22.447Z,1.83
2023-04-08T22:53:49.960Z,2.00
2023-04-08T22:56:18.789Z,2.03
2023-04-08T22:58:46.307Z,2.25
2023-04-08T23:01:14.995Z,2.40
2023-04-08T23:03:42.625Z,2.55
2023-04-08T23:06:10.152Z,2.53
2023-04-08T23:08:38.630Z,2.67
2023-04-08T23:11:06.414Z,2.38
2023-04-08T23:13:35.383Z,2.17
2023-04-08T23:16:03.023Z,2.55
2023-04-08T23:18:30.746Z,1.83
2023-04-08T23:20:58.596Z,2.08
2023-04-08T23:23:26.454Z,2.13
2023-04-08T23:25:55.695Z,2.10
2023-04-08T23:28:23.548Z,2.20
2023-04-08T23:30:52.383Z,2.10
2023-04-08T23:33:19.938Z,1.85
2023-04-08T23:35:47.464Z,1.80
2023-04-08T23:38:15.014Z,2.03
2023-04-08T23:40:42.488Z,1.83
2023-04-08T23:43:09.986Z,2.03
2023-04-08T23:45:37.463Z,2.10
2023-04-08T23:48:09.960Z,2.05
2023-04-08T23:50:37.729Z,2.00
2023-04-08T23:53:05.335Z,2.42
2023-04-08T23:55:32.842Z,2.10
2023-04-08T23:58:00.327Z,2.17
